Aérodrome :
LOGIN :

S'inscrire | Disclaimer

   EN    FR    IT 

 










Légende :    VFR   VFR Marginal   IFR   IFR Intensif   IFR Très Intensif
Visi : 
Plafond : 
>= 8 km
>= 3000ft
5 à 8 km
1000 à 3000 ft
1500m à 5 km
500 à 1000 ft
800 à 1500m
200 à 500 ft
< 800m
< 200 ft
Symboles :   Orages  Brouillard  Fortes neiges  Fortes précipitations  Vent > 20 kt
SIGMETs :   Divers  Orages  Givrage  Turbulence  Onde Orograph.  Cendres Volcan.







- Altitude de l'aérodrome : 74 ft
- Code IATA : EIN


EHEH - Eindhoven

DERNIER METAR :
  • 210325Z AUTO 14001KT 0300 FG FEW000 OVC300 03/03 Q1034 RED

METARs EXPIRÉS :
  • 210309Z AUTO 14001KT 0450 FG BKN300 OVC360 03/03 Q1034 RED
  • 210303Z AUTO 14002KT 3000 BR OVC310 03/03 Q1034 YLO
  • 210255Z AUTO 14001KT 0300 FG OVC340 04/04 Q1034 RED
  • 210242Z AUTO 14001KT 0650 FG OVC340 04/04 Q1034 RED
  • 210229Z AUTO 15002KT 0550 FG OVC330 04/03 Q1034 RED
  • 210225Z AUTO 15002KT 1300 BR FEW000 OVC330 05/04 Q1034 AMB
  • 210208Z AUTO 00000KT 0250 FG SCT000 OVC300 04/03 Q1034 RED
  • 210155Z AUTO 18001KT 0200 FG OVC310 05/05 Q1034 RED
  • 210144Z AUTO 17002KT 2300 BR OVC300 04/04 Q1034 YLO
  • 210133Z AUTO 15002KT 1000 BR OVC300 04/04 Q1034 AMB
  • 210125Z AUTO 16002KT 0900 FG OVC300 05/04 Q1034 AMB
  • 210116Z AUTO 16003KT 0650 FG OVC300 05/05 Q1034 RED
  • 210100Z AUTO 22001KT 0350 FG OVC300 05/05 Q1034 RED
  • 210055Z AUTO 22001KT 3400 BR OVC300 05/05 Q1034 YLO
  • 210045Z AUTO 00000KT 0900 FG OVC300 05/05 Q1034 AMB
  • 210033Z AUTO 22001KT 0300 FG OVC300 05/05 Q1034 RED

TAF TAF EHEH
Valide du 21 à 00h jusqu'au 22 à 06h UTC


202350Z 2100/2206 VRB03KT 2000 BR BKN030
BECMG 2100/2102 1500 BR MIFG SCT030
PROB40 2100/2107 0800 BCFG SCT002
BECMG 2107/2109 22006KT 6000 BKN012
BECMG 2110/2112 9999 NSW SCT020
BECMG 2121/2123 VRB03KT 2500 BR MIFG
PROB40 2122/2206 0800 FG SCT002
BECMG 2203/2205 07005KT
Pas de NOTAMs connus pour ce terrain.



MET'MAP, la Météo Aéronautique d'un coup d'oeil ! - Copyright ORBIFLY Décembre 2007 - Disclaimer

ORBIFLY MET'MAP TEAM :

Programmation & Développement : Alexandra Zaïnal
Conception & Développement : Baudouin d'Aumeries
Co-Programmation & Développement : Marc-Olivier Méhu
Soutien technique & logistique : Manuel Goepfert

Contact : metmap@orbifly.com




SOURCES & CREDITS :

   NOAA